sensor_id;sensor_type;location;lat;lon;timestamp;P1;durP1;ratioP1;P2;durP2;ratioP2
52318;SDS011;38258;51.148;14.068;2024-01-15T00:01:07;12.60;;;5.43;;
52318;SDS011;38258;51.148;14.068;2024-01-15T00:03:34;12.55;;;4.93;;
52318;SDS011;38258;51.148;14.068;2024-01-15T00:06:01;9.27;;;4.68;;
52318;SDS011;38258;51.148;14.068;2024-01-15T00:08:27;9.88;;;3.72;;
52318;SDS011;38258;51.148;14.068;2024-01-15T00:10:55;10.32;;;4.50;;
52318;SDS011;38258;51.148;14.068;2024-01-15T00:13:22;13.65;;;5.07;;
52318;SDS011;38258;51.148;14.068;2024-01-15T00:15:48;11.73;;;4.85;;
52318;SDS011;38258;51.148;14.068;2024-01-15T00:18:15;13.50;;;5.32;;
52318;SDS011;38258;51.148;14.068;2024-01-15T00:20:42;11.90;;;4.72;;
52318;SDS011;38258;51.148;14.068;2024-01-15T00:23:08;11.30;;;4.30;;
52318;SDS011;38258;51.148;14.068;2024-01-15T00:25:35;11.38;;;4.53;;
52318;SDS011;38258;51.148;14.068;2024-01-15T00:28:03;9.00;;;3.97;;
52318;SDS011;38258;51.148;14.068;2024-01-15T00:30:30;11.77;;;4.90;;
52318;SDS011;38258;51.148;14.068;2024-01-15T00:32:57;11.90;;;4.97;;
52318;SDS011;38258;51.148;14.068;2024-01-15T00:35:24;10.70;;;4.43;;
52318;SDS011;38258;51.148;14.068;2024-01-15T00:37:50;12.32;;;5.40;;
52318;SDS011;38258;51.148;14.068;2024-01-15T00:40:17;11.57;;;4.95;;
52318;SDS011;38258;51.148;14.068;2024-01-15T00:42:43;12.13;;;4.75;;
52318;SDS011;38258;51.148;14.068;2024-01-15T00:45:11;8.85;;;4.65;;
52318;SDS011;38258;51.148;14.068;2024-01-15T00:47:38;10.43;;;4.60;;
52318;SDS011;38258;51.148;14.068;2024-01-15T00:50:05;9.70;;;4.25;;
52318;SDS011;38258;51.148;14.068;2024-01-15T00:52:32;11.38;;;5.05;;
52318;SDS011;38258;51.148;14.068;2024-01-15T00:54:59;13.45;;;5.70;;
52318;SDS011;38258;51.148;14.068;2024-01-15T00:57:25;8.73;;;4.38;;
52318;SDS011;38258;51.148;14.068;2024-01-15T00:59:52;14.45;;;5.80;;
52318;SDS011;38258;51.148;14.068;2024-01-15T01:02:20;9.98;;;4.30;;
52318;SDS011;38258;51.148;14.068;2024-01-15T01:04:46;9.90;;;4.53;;
52318;SDS011;38258;51.148;14.068;2024-01-15T01:07:13;9.90;;;4.40;;
52318;SDS011;38258;51.148;14.068;2024-01-15T01:09:40;9.23;;;4.57;;
52318;SDS011;38258;51.148;14.068;2024-01-15T01:12:06;9.00;;;4.63;;
52318;SDS011;38258;51.148;14.068;2024-01-15T01:14:33;9.88;;;3.95;;
52318;SDS011;38258;51.148;14.068;2024-01-15T01:16:59;11.35;;;4.30;;
52318;SDS011;38258;51.148;14.068;2024-01-15T01:19:27;12.50;;;4.57;;
52318;SDS011;38258;51.148;14.068;2024-01-15T01:21:55;10.23;;;5.18;;
52318;SDS011;38258;51.148;14.068;2024-01-15T01:24:22;10.05;;;5.13;;
52318;SDS011;38258;51.148;14.068;2024-01-15T01:26:48;10.85;;;4.32;;
52318;SDS011;38258;51.148;14.068;2024-01-15T01:29:15;14.38;;;5.18;;
52318;SDS011;38258;51.148;14.068;2024-01-15T01:31:42;11.35;;;5.07;;
52318;SDS011;38258;51.148;14.068;2024-01-15T01:34:09;11.52;;;5.47;;
52318;SDS011;38258;51.148;14.068;2024-01-15T01:36:37;7.93;;;4.15;;
52318;SDS011;38258;51.148;14.068;2024-01-15T01:39:04;12.82;;;6.03;;
52318;SDS011;38258;51.148;14.068;2024-01-15T01:41:30;12.95;;;5.75;;
52318;SDS011;38258;51.148;14.068;2024-01-15T01:43:57;8.50;;;4.25;;
52318;SDS011;38258;51.148;14.068;2024-01-15T01:46:23;8.77;;;4.25;;
52318;SDS011;38258;51.148;14.068;2024-01-15T01:48:51;11.20;;;4.63;;
52318;SDS011;38258;51.148;14.068;2024-01-15T01:51:18;11.75;;;4.95;;
52318;SDS011;38258;51.148;14.068;2024-01-15T01:53:48;9.85;;;4.50;;
52318;SDS011;38258;51.148;14.068;2024-01-15T01:56:15;10.50;;;3.88;;
52318;SDS011;38258;51.148;14.068;2024-01-15T01:58:43;9.77;;;5.00;;
52318;SDS011;38258;51.148;14.068;2024-01-15T02:01:10;11.88;;;5.43;;
52318;SDS011;38258;51.148;14.068;2024-01-15T02:03:39;12.63;;;5.10;;
52318;SDS011;38258;51.148;14.068;2024-01-15T02:06:06;9.05;;;4.30;;
52318;SDS011;38258;51.148;14.068;2024-01-15T02:08:33;9.07;;;5.45;;
52318;SDS011;38258;51.148;14.068;2024-01-15T02:11:02;10.80;;;5.10;;
52318;SDS011;38258;51.148;14.068;2024-01-15T02:13:28;9.63;;;4.88;;
52318;SDS011;38258;51.148;14.068;2024-01-15T02:15:55;11.07;;;4.68;;
52318;SDS011;38258;51.148;14.068;2024-01-15T02:18:22;14.68;;;5.13;;
52318;SDS011;38258;51.148;14.068;2024-01-15T02:20:48;11.07;;;4.88;;
52318;SDS011;38258;51.148;14.068;2024-01-15T02:23:16;9.95;;;4.32;;
52318;SDS011;38258;51.148;14.068;2024-01-15T02:25:44;10.15;;;5.35;;
52318;SDS011;38258;51.148;14.068;2024-01-15T02:28:11;11.35;;;5.47;;
52318;SDS011;38258;51.148;14.068;2024-01-15T02:30:40;11.10;;;4.47;;
52318;SDS011;38258;51.148;14.068;2024-01-15T02:33:08;11.57;;;4.15;;
52318;SDS011;38258;51.148;14.068;2024-01-15T02:35:35;10.68;;;5.03;;
52318;SDS011;38258;51.148;14.068;2024-01-15T02:38:03;9.25;;;4.50;;
52318;SDS011;38258;51.148;14.068;2024-01-15T02:40:31;8.88;;;4.82;;
52318;SDS011;38258;51.148;14.068;2024-01-15T02:42:58;10.48;;;5.07;;
52318;SDS011;38258;51.148;14.068;2024-01-15T02:45:25;11.15;;;4.75;;
52318;SDS011;38258;51.148;14.068;2024-01-15T02:47:52;9.20;;;4.20;;
52318;SDS011;38258;51.148;14.068;2024-01-15T02:50:19;10.48;;;4.28;;
52318;SDS011;38258;51.148;14.068;2024-01-15T02:52:45;12.07;;;5.63;;
52318;SDS011;38258;51.148;14.068;2024-01-15T02:55:12;14.65;;;4.93;;
52318;SDS011;38258;51.148;14.068;2024-01-15T02:57:40;11.90;;;5.35;;
52318;SDS011;38258;51.148;14.068;2024-01-15T03:00:07;14.57;;;5.63;;
52318;SDS011;38258;51.148;14.068;2024-01-15T03:02:37;13.65;;;6.65;;
52318;SDS011;38258;51.148;14.068;2024-01-15T03:05:05;14.63;;;5.25;;
52318;SDS011;38258;51.148;14.068;2024-01-15T03:07:32;16.83;;;6.43;;
52318;SDS011;38258;51.148;14.068;2024-01-15T03:09:59;14.18;;;5.60;;
52318;SDS011;38258;51.148;14.068;2024-01-15T03:12:26;10.10;;;5.13;;
52318;SDS011;38258;51.148;14.068;2024-01-15T03:14:54;12.65;;;5.13;;
52318;SDS011;38258;51.148;14.068;2024-01-15T03:17:21;12.45;;;5.40;;
52318;SDS011;38258;51.148;14.068;2024-01-15T03:19:47;12.90;;;5.88;;
52318;SDS011;38258;51.148;14.068;2024-01-15T03:22:14;13.20;;;5.53;;
52318;SDS011;38258;51.148;14.068;2024-01-15T03:24:41;10.35;;;5.07;;
52318;SDS011;38258;51.148;14.068;2024-01-15T03:27:08;12.32;;;5.30;;
52318;SDS011;38258;51.148;14.068;2024-01-15T03:29:34;8.32;;;3.72;;
52318;SDS011;38258;51.148;14.068;2024-01-15T03:32:02;11.00;;;5.65;;
52318;SDS011;38258;51.148;14.068;2024-01-15T03:34:29;10.45;;;5.88;;
52318;SDS011;38258;51.148;14.068;2024-01-15T03:36:56;14.60;;;5.78;;
52318;SDS011;38258;51.148;14.068;2024-01-15T03:39:23;14.73;;;5.75;;
52318;SDS011;38258;51.148;14.068;2024-01-15T03:41:50;12.45;;;5.25;;
52318;SDS011;38258;51.148;14.068;2024-01-15T03:44:17;13.98;;;5.43;;
52318;SDS011;38258;51.148;14.068;2024-01-15T03:46:43;11.23;;;4.88;;
52318;SDS011;38258;51.148;14.068;2024-01-15T03:49:11;14.13;;;5.78;;
52318;SDS011;38258;51.148;14.068;2024-01-15T03:51:38;11.02;;;4.88;;
52318;SDS011;38258;51.148;14.068;2024-01-15T03:54:04;10.30;;;5.03;;
52318;SDS011;38258;51.148;14.068;2024-01-15T03:56:31;11.48;;;4.63;;
52318;SDS011;38258;51.148;14.068;2024-01-15T03:58:58;14.82;;;5.93;;
52318;SDS011;38258;51.148;14.068;2024-01-15T04:01:25;12.52;;;5.55;;
52318;SDS011;38258;51.148;14.068;2024-01-15T04:03:51;15.15;;;5.10;;
52318;SDS011;38258;51.148;14.068;2024-01-15T04:06:19;9.40;;;4.88;;
52318;SDS011;38258;51.148;14.068;2024-01-15T04:08:46;11.38;;;5.55;;
52318;SDS011;38258;51.148;14.068;2024-01-15T04:11:12;14.20;;;5.88;;
52318;SDS011;38258;51.148;14.068;2024-01-15T04:13:39;14.68;;;6.20;;
52318;SDS011;38258;51.148;14.068;2024-01-15T04:16:05;14.05;;;6.18;;
52318;SDS011;38258;51.148;14.068;2024-01-15T04:18:32;14.98;;;5.50;;
52318;SDS011;38258;51.148;14.068;2024-01-15T04:20:59;13.85;;;6.05;;
52318;SDS011;38258;51.148;14.068;2024-01-15T04:23:28;15.57;;;5.90;;
52318;SDS011;38258;51.148;14.068;2024-01-15T04:25:54;11.52;;;5.03;;
52318;SDS011;38258;51.148;14.068;2024-01-15T04:28:21;13.57;;;5.78;;
52318;SDS011;38258;51.148;14.068;2024-01-15T04:30:48;15.02;;;5.75;;
52318;SDS011;38258;51.148;14.068;2024-01-15T04:33:14;14.10;;;5.95;;
52318;SDS011;38258;51.148;14.068;2024-01-15T04:35:43;14.50;;;6.13;;
52318;SDS011;38258;51.148;14.068;2024-01-15T04:38:10;14.00;;;5.55;;
52318;SDS011;38258;51.148;14.068;2024-01-15T04:40:38;14.55;;;5.65;;
52318;SDS011;38258;51.148;14.068;2024-01-15T04:43:04;14.15;;;6.53;;
52318;SDS011;38258;51.148;14.068;2024-01-15T04:45:31;14.52;;;5.63;;
52318;SDS011;38258;51.148;14.068;2024-01-15T04:47:58;13.90;;;6.30;;
52318;SDS011;38258;51.148;14.068;2024-01-15T04:50:24;12.57;;;5.75;;
52318;SDS011;38258;51.148;14.068;2024-01-15T04:52:51;12.95;;;5.40;;
52318;SDS011;38258;51.148;14.068;2024-01-15T04:55:18;9.23;;;4.97;;
52318;SDS011;38258;51.148;14.068;2024-01-15T04:57:46;13.57;;;5.45;;
52318;SDS011;38258;51.148;14.068;2024-01-15T05:00:12;12.85;;;5.82;;
52318;SDS011;38258;51.148;14.068;2024-01-15T05:02:39;11.77;;;4.63;;
52318;SDS011;38258;51.148;14.068;2024-01-15T05:05:06;12.45;;;4.88;;
52318;SDS011;38258;51.148;14.068;2024-01-15T05:07:33;10.95;;;4.75;;
52318;SDS011;38258;51.148;14.068;2024-01-15T05:09:59;8.70;;;4.60;;
52318;SDS011;38258;51.148;14.068;2024-01-15T05:12:26;11.13;;;5.45;;
52318;SDS011;38258;51.148;14.068;2024-01-15T05:14:54;10.00;;;4.93;;
52318;SDS011;38258;51.148;14.068;2024-01-15T05:17:21;13.27;;;4.65;;
52318;SDS011;38258;51.148;14.068;2024-01-15T05:19:47;11.82;;;5.07;;
52318;SDS011;38258;51.148;14.068;2024-01-15T05:22:14;8.85;;;4.28;;
52318;SDS011;38258;51.148;14.068;2024-01-15T05:24:41;14.32;;;5.28;;
52318;SDS011;38258;51.148;14.068;2024-01-15T05:27:08;7.65;;;3.95;;
52318;SDS011;38258;51.148;14.068;2024-01-15T05:29:34;9.13;;;4.53;;
52318;SDS011;38258;51.148;14.068;2024-01-15T05:32:02;10.38;;;4.90;;
52318;SDS011;38258;51.148;14.068;2024-01-15T05:34:29;13.38;;;5.50;;
52318;SDS011;38258;51.148;14.068;2024-01-15T05:36:56;11.02;;;4.97;;
52318;SDS011;38258;51.148;14.068;2024-01-15T05:39:22;11.52;;;4.78;;
52318;SDS011;38258;51.148;14.068;2024-01-15T05:41:49;12.60;;;5.30;;
52318;SDS011;38258;51.148;14.068;2024-01-15T05:44:16;9.38;;;4.72;;
52318;SDS011;38258;51.148;14.068;2024-01-15T05:46:42;8.27;;;4.00;;
52318;SDS011;38258;51.148;14.068;2024-01-15T05:49:10;10.43;;;4.57;;
52318;SDS011;38258;51.148;14.068;2024-01-15T05:51:37;12.75;;;5.53;;
52318;SDS011;38258;51.148;14.068;2024-01-15T05:54:03;7.90;;;3.88;;
52318;SDS011;38258;51.148;14.068;2024-01-15T05:56:31;9.52;;;4.60;;
52318;SDS011;38258;51.148;14.068;2024-01-15T05:58:57;11.98;;;5.38;;
52318;SDS011;38258;51.148;14.068;2024-01-15T06:01:24;10.02;;;4.47;;
52318;SDS011;38258;51.148;14.068;2024-01-15T06:03:51;12.48;;;6.28;;
52318;SDS011;38258;51.148;14.068;2024-01-15T06:06:20;10.20;;;5.00;;
52318;SDS011;38258;51.148;14.068;2024-01-15T06:08:46;12.88;;;4.70;;
52318;SDS011;38258;51.148;14.068;2024-01-15T06:11:13;8.55;;;4.32;;
52318;SDS011;38258;51.148;14.068;2024-01-15T06:13:39;14.25;;;5.28;;
52318;SDS011;38258;51.148;14.068;2024-01-15T06:16:13;8.52;;;4.57;;
52318;SDS011;38258;51.148;14.068;2024-01-15T06:18:41;9.40;;;4.18;;
52318;SDS011;38258;51.148;14.068;2024-01-15T06:21:08;6.85;;;3.58;;
52318;SDS011;38258;51.148;14.068;2024-01-15T06:23:37;8.95;;;4.25;;
52318;SDS011;38258;51.148;14.068;2024-01-15T06:26:04;10.45;;;4.20;;
52318;SDS011;38258;51.148;14.068;2024-01-15T06:28:30;11.20;;;4.82;;
52318;SDS011;38258;51.148;14.068;2024-01-15T06:30:57;12.25;;;5.10;;
52318;SDS011;38258;51.148;14.068;2024-01-15T06:33:24;6.13;;;3.38;;
52318;SDS011;38258;51.148;14.068;2024-01-15T06:35:50;9.88;;;4.78;;
52318;SDS011;38258;51.148;14.068;2024-01-15T06:38:17;7.55;;;4.28;;
52318;SDS011;38258;51.148;14.068;2024-01-15T06:40:45;7.90;;;3.72;;
52318;SDS011;38258;51.148;14.068;2024-01-15T06:43:13;12.30;;;5.10;;
52318;SDS011;38258;51.148;14.068;2024-01-15T06:45:40;18.13;;;5.05;;
52318;SDS011;38258;51.148;14.068;2024-01-15T06:48:06;7.72;;;3.70;;
52318;SDS011;38258;51.148;14.068;2024-01-15T06:50:33;10.32;;;4.50;;
52318;SDS011;38258;51.148;14.068;2024-01-15T06:53:00;9.35;;;4.40;;
52318;SDS011;38258;51.148;14.068;2024-01-15T06:55:26;12.05;;;5.18;;
52318;SDS011;38258;51.148;14.068;2024-01-15T06:57:54;11.00;;;4.85;;
52318;SDS011;38258;51.148;14.068;2024-01-15T07:00:21;7.28;;;3.63;;
52318;SDS011;38258;51.148;14.068;2024-01-15T07:02:48;8.23;;;3.65;;
52318;SDS011;38258;51.148;14.068;2024-01-15T07:05:14;9.63;;;4.30;;
52318;SDS011;38258;51.148;14.068;2024-01-15T07:07:41;10.07;;;3.83;;
52318;SDS011;38258;51.148;14.068;2024-01-15T07:10:08;10.90;;;4.30;;
52318;SDS011;38258;51.148;14.068;2024-01-15T07:12:35;9.10;;;3.28;;
52318;SDS011;38258;51.148;14.068;2024-01-15T07:15:03;6.88;;;3.75;;
52318;SDS011;38258;51.148;14.068;2024-01-15T07:17:32;10.38;;;4.38;;
52318;SDS011;38258;51.148;14.068;2024-01-15T07:19:58;10.27;;;3.90;;
52318;SDS011;38258;51.148;14.068;2024-01-15T07:22:25;11.60;;;4.18;;
52318;SDS011;38258;51.148;14.068;2024-01-15T07:24:52;9.25;;;4.43;;
52318;SDS011;38258;51.148;14.068;2024-01-15T07:27:18;12.80;;;5.15;;
52318;SDS011;38258;51.148;14.068;2024-01-15T07:29:46;8.57;;;4.65;;
52318;SDS011;38258;51.148;14.068;2024-01-15T07:32:15;9.75;;;4.40;;
52318;SDS011;38258;51.148;14.068;2024-01-15T07:34:41;10.35;;;4.53;;
52318;SDS011;38258;51.148;14.068;2024-01-15T07:37:08;7.47;;;3.55;;
52318;SDS011;38258;51.148;14.068;2024-01-15T07:39:35;11.20;;;4.32;;
52318;SDS011;38258;51.148;14.068;2024-01-15T07:42:01;13.13;;;4.15;;
52318;SDS011;38258;51.148;14.068;2024-01-15T07:44:28;10.20;;;4.43;;
52318;SDS011;38258;51.148;14.068;2024-01-15T07:46:55;9.70;;;4.18;;
52318;SDS011;38258;51.148;14.068;2024-01-15T07:49:23;14.00;;;5.07;;
52318;SDS011;38258;51.148;14.068;2024-01-15T07:51:49;8.65;;;4.07;;
52318;SDS011;38258;51.148;14.068;2024-01-15T07:54:16;11.02;;;4.35;;
52318;SDS011;38258;51.148;14.068;2024-01-15T07:56:55;12.00;;;4.57;;
52318;SDS011;38258;51.148;14.068;2024-01-15T07:59:22;9.25;;;3.17;;
52318;SDS011;38258;51.148;14.068;2024-01-15T08:01:49;11.35;;;4.03;;
52318;SDS011;38258;51.148;14.068;2024-01-15T08:04:15;7.57;;;4.13;;
52318;SDS011;38258;51.148;14.068;2024-01-15T08:06:43;9.88;;;4.28;;
52318;SDS011;38258;51.148;14.068;2024-01-15T08:09:10;11.07;;;4.53;;
52318;SDS011;38258;51.148;14.068;2024-01-15T08:11:39;11.10;;;4.38;;
52318;SDS011;38258;51.148;14.068;2024-01-15T08:14:06;7.18;;;3.60;;
52318;SDS011;38258;51.148;14.068;2024-01-15T08:16:33;10.68;;;4.25;;
52318;SDS011;38258;51.148;14.068;2024-01-15T08:18:59;10.45;;;3.88;;
52318;SDS011;38258;51.148;14.068;2024-01-15T08:21:26;9.98;;;4.25;;
52318;SDS011;38258;51.148;14.068;2024-01-15T08:23:56;8.70;;;3.88;;
52318;SDS011;38258;51.148;14.068;2024-01-15T08:26:23;8.68;;;4.00;;
52318;SDS011;38258;51.148;14.068;2024-01-15T08:28:49;9.70;;;4.18;;
52318;SDS011;38258;51.148;14.068;2024-01-15T08:31:16;8.32;;;4.05;;
52318;SDS011;38258;51.148;14.068;2024-01-15T08:33:43;14.18;;;4.85;;
52318;SDS011;38258;51.148;14.068;2024-01-15T08:36:10;12.05;;;4.32;;
52318;SDS011;38258;51.148;14.068;2024-01-15T08:38:36;6.20;;;3.85;;
52318;SDS011;38258;51.148;14.068;2024-01-15T08:41:04;9.63;;;4.43;;
52318;SDS011;38258;51.148;14.068;2024-01-15T08:43:31;8.65;;;4.35;;
52318;SDS011;38258;51.148;14.068;2024-01-15T08:45:58;9.57;;;3.90;;
52318;SDS011;38258;51.148;14.068;2024-01-15T08:48:24;8.18;;;3.95;;
52318;SDS011;38258;51.148;14.068;2024-01-15T08:50:52;11.55;;;4.70;;
52318;SDS011;38258;51.148;14.068;2024-01-15T08:53:19;8.00;;;3.80;;
52318;SDS011;38258;51.148;14.068;2024-01-15T08:55:46;8.45;;;3.25;;
52318;SDS011;38258;51.148;14.068;2024-01-15T08:58:15;11.55;;;4.78;;
52318;SDS011;38258;51.148;14.068;2024-01-15T09:00:42;12.20;;;4.63;;
52318;SDS011;38258;51.148;14.068;2024-01-15T09:03:09;10.85;;;5.07;;
52318;SDS011;38258;51.148;14.068;2024-01-15T09:05:37;8.45;;;4.47;;
52318;SDS011;38258;51.148;14.068;2024-01-15T09:08:03;8.82;;;3.80;;
52318;SDS011;38258;51.148;14.068;2024-01-15T09:10:30;10.40;;;4.63;;
52318;SDS011;38258;51.148;14.068;2024-01-15T09:12:57;11.23;;;4.38;;
52318;SDS011;38258;51.148;14.068;2024-01-15T09:15:25;8.80;;;3.83;;
52318;SDS011;38258;51.148;14.068;2024-01-15T09:17:52;10.02;;;4.03;;
52318;SDS011;38258;51.148;14.068;2024-01-15T09:20:19;7.85;;;3.72;;
52318;SDS011;38258;51.148;14.068;2024-01-15T09:22:45;16.30;;;6.50;;
52318;SDS011;38258;51.148;14.068;2024-01-15T09:25:12;9.40;;;3.53;;
52318;SDS011;38258;51.148;14.068;2024-01-15T09:27:39;7.60;;;3.85;;
52318;SDS011;38258;51.148;14.068;2024-01-15T09:30:06;14.73;;;4.30;;
52318;SDS011;38258;51.148;14.068;2024-01-15T09:32:34;10.70;;;4.82;;
52318;SDS011;38258;51.148;14.068;2024-01-15T09:35:01;9.52;;;4.95;;
52318;SDS011;38258;51.148;14.068;2024-01-15T09:37:28;12.15;;;5.05;;
52318;SDS011;38258;51.148;14.068;2024-01-15T09:39:54;7.93;;;3.15;;
52318;SDS011;38258;51.148;14.068;2024-01-15T09:42:22;8.68;;;4.43;;
52318;SDS011;38258;51.148;14.068;2024-01-15T09:44:50;11.18;;;4.72;;
52318;SDS011;38258;51.148;14.068;2024-01-15T09:47:17;10.30;;;4.63;;
52318;SDS011;38258;51.148;14.068;2024-01-15T09:49:46;8.55;;;3.47;;
52318;SDS011;38258;51.148;14.068;2024-01-15T09:52:13;7.13;;;4.28;;
52318;SDS011;38258;51.148;14.068;2024-01-15T09:54:43;5.50;;;2.95;;
52318;SDS011;38258;51.148;14.068;2024-01-15T09:57:10;5.35;;;2.15;;
52318;SDS011;38258;51.148;14.068;2024-01-15T09:59:37;11.65;;;4.32;;
52318;SDS011;38258;51.148;14.068;2024-01-15T10:02:05;7.65;;;3.70;;
52318;SDS011;38258;51.148;14.068;2024-01-15T10:04:33;9.32;;;3.90;;
52318;SDS011;38258;51.148;14.068;2024-01-15T10:07:01;9.15;;;4.15;;
52318;SDS011;38258;51.148;14.068;2024-01-15T10:09:29;7.80;;;4.18;;
52318;SDS011;38258;51.148;14.068;2024-01-15T10:11:56;7.28;;;3.78;;
52318;SDS011;38258;51.148;14.068;2024-01-15T10:14:23;9.48;;;4.10;;
52318;SDS011;38258;51.148;14.068;2024-01-15T10:16:50;8.35;;;4.03;;
52318;SDS011;38258;51.148;14.068;2024-01-15T10:19:17;9.35;;;3.70;;
52318;SDS011;38258;51.148;14.068;2024-01-15T10:21:43;7.38;;;4.13;;
52318;SDS011;38258;51.148;14.068;2024-01-15T10:24:13;10.88;;;4.63;;
52318;SDS011;38258;51.148;14.068;2024-01-15T10:26:40;10.02;;;4.45;;
52318;SDS011;38258;51.148;14.068;2024-01-15T10:29:06;7.00;;;3.50;;
52318;SDS011;38258;51.148;14.068;2024-01-15T10:31:33;8.20;;;3.42;;
52318;SDS011;38258;51.148;14.068;2024-01-15T10:34:09;5.55;;;3.17;;
52318;SDS011;38258;51.148;14.068;2024-01-15T10:36:38;5.57;;;3.03;;
52318;SDS011;38258;51.148;14.068;2024-01-15T10:39:06;9.35;;;3.70;;
52318;SDS011;38258;51.148;14.068;2024-01-15T10:41:34;8.45;;;3.58;;
52318;SDS011;38258;51.148;14.068;2024-01-15T10:44:01;10.55;;;3.88;;
52318;SDS011;38258;51.148;14.068;2024-01-15T10:46:28;6.53;;;3.53;;
52318;SDS011;38258;51.148;14.068;2024-01-15T10:48:56;7.43;;;3.70;;
52318;SDS011;38258;51.148;14.068;2024-01-15T10:51:23;7.25;;;3.53;;
52318;SDS011;38258;51.148;14.068;2024-01-15T10:53:51;7.65;;;3.78;;
52318;SDS011;38258;51.148;14.068;2024-01-15T10:56:19;8.27;;;3.20;;
52318;SDS011;38258;51.148;14.068;2024-01-15T10:58:49;6.82;;;2.80;;
52318;SDS011;38258;51.148;14.068;2024-01-15T11:01:17;8.23;;;3.70;;
52318;SDS011;38258;51.148;14.068;2024-01-15T11:03:44;8.32;;;3.22;;
52318;SDS011;38258;51.148;14.068;2024-01-15T11:06:18;11.52;;;3.83;;
52318;SDS011;38258;51.148;14.068;2024-01-15T11:08:45;7.72;;;3.80;;
52318;SDS011;38258;51.148;14.068;2024-01-15T11:11:15;7.32;;;3.33;;
52318;SDS011;38258;51.148;14.068;2024-01-15T11:13:42;6.10;;;3.15;;
52318;SDS011;38258;51.148;14.068;2024-01-15T11:16:11;5.75;;;3.33;;
52318;SDS011;38258;51.148;14.068;2024-01-15T11:18:40;8.00;;;3.58;;
52318;SDS011;38258;51.148;14.068;2024-01-15T11:21:20;8.95;;;3.65;;
52318;SDS011;38258;51.148;14.068;2024-01-15T11:23:51;4.57;;;2.60;;
52318;SDS011;38258;51.148;14.068;2024-01-15T11:26:28;7.50;;;4.05;;
52318;SDS011;38258;51.148;14.068;2024-01-15T11:29:02;7.53;;;3.20;;
52318;SDS011;38258;51.148;14.068;2024-01-15T11:34:52;5.40;;;2.92;;
52318;SDS011;38258;51.148;14.068;2024-01-15T11:37:27;7.55;;;3.47;;
52318;SDS011;38258;51.148;14.068;2024-01-15T11:39:55;11.90;;;3.90;;
52318;SDS011;38258;51.148;14.068;2024-01-15T11:42:26;4.90;;;2.70;;
52318;SDS011;38258;51.148;14.068;2024-01-15T11:44:53;9.02;;;3.90;;
52318;SDS011;38258;51.148;14.068;2024-01-15T11:47:30;6.47;;;3.22;;
52318;SDS011;38258;51.148;14.068;2024-01-15T11:50:12;8.63;;;4.13;;
52318;SDS011;38258;51.148;14.068;2024-01-15T11:52:40;8.63;;;3.67;;
52318;SDS011;38258;51.148;14.068;2024-01-15T11:55:18;8.60;;;3.72;;
52318;SDS011;38258;51.148;14.068;2024-01-15T11:57:49;7.45;;;3.35;;
52318;SDS011;38258;51.148;14.068;2024-01-15T12:00:17;9.45;;;4.55;;
52318;SDS011;38258;51.148;14.068;2024-01-15T12:02:46;9.32;;;3.85;;
52318;SDS011;38258;51.148;14.068;2024-01-15T12:05:14;8.88;;;3.70;;
52318;SDS011;38258;51.148;14.068;2024-01-15T12:07:43;6.70;;;3.00;;
52318;SDS011;38258;51.148;14.068;2024-01-15T12:10:12;6.05;;;3.15;;
52318;SDS011;38258;51.148;14.068;2024-01-15T12:12:47;8.13;;;3.75;;
52318;SDS011;38258;51.148;14.068;2024-01-15T12:15:26;7.88;;;4.03;;
52318;SDS011;38258;51.148;14.068;2024-01-15T12:17:56;11.18;;;3.15;;
52318;SDS011;38258;51.148;14.068;2024-01-15T12:20:24;7.45;;;3.97;;
52318;SDS011;38258;51.148;14.068;2024-01-15T12:22:50;7.32;;;3.55;;
52318;SDS011;38258;51.148;14.068;2024-01-15T12:25:17;8.32;;;4.18;;
52318;SDS011;38258;51.148;14.068;2024-01-15T12:27:44;8.82;;;3.67;;
52318;SDS011;38258;51.148;14.068;2024-01-15T12:30:11;4.63;;;2.53;;
52318;SDS011;38258;51.148;14.068;2024-01-15T12:32:39;6.68;;;3.42;;
52318;SDS011;38258;51.148;14.068;2024-01-15T12:35:08;5.35;;;2.80;;
52318;SDS011;38258;51.148;14.068;2024-01-15T12:37:35;5.80;;;2.92;;
52318;SDS011;38258;51.148;14.068;2024-01-15T12:40:03;7.75;;;3.30;;
52318;SDS011;38258;51.148;14.068;2024-01-15T12:42:32;10.20;;;4.05;;
52318;SDS011;38258;51.148;14.068;2024-01-15T12:44:59;7.50;;;3.28;;
52318;SDS011;38258;51.148;14.068;2024-01-15T12:47:26;6.43;;;3.00;;
52318;SDS011;38258;51.148;14.068;2024-01-15T12:49:53;3.97;;;2.42;;
52318;SDS011;38258;51.148;14.068;2024-01-15T12:52:21;10.13;;;3.97;;
52318;SDS011;38258;51.148;14.068;2024-01-15T12:54:48;10.55;;;4.60;;
52318;SDS011;38258;51.148;14.068;2024-01-15T12:57:14;9.13;;;3.55;;
52318;SDS011;38258;51.148;14.068;2024-01-15T12:59:42;6.85;;;3.30;;
52318;SDS011;38258;51.148;14.068;2024-01-15T13:02:09;7.38;;;3.13;;
52318;SDS011;38258;51.148;14.068;2024-01-15T13:04:36;7.45;;;3.47;;
52318;SDS011;38258;51.148;14.068;2024-01-15T13:07:02;10.38;;;3.65;;
52318;SDS011;38258;51.148;14.068;2024-01-15T13:09:30;6.53;;;3.65;;
52318;SDS011;38258;51.148;14.068;2024-01-15T13:11:56;10.10;;;4.07;;
52318;SDS011;38258;51.148;14.068;2024-01-15T13:14:23;7.40;;;4.05;;
52318;SDS011;38258;51.148;14.068;2024-01-15T13:16:50;8.73;;;3.67;;
52318;SDS011;38258;51.148;14.068;2024-01-15T13:19:17;8.30;;;3.50;;
52318;SDS011;38258;51.148;14.068;2024-01-15T13:21:44;10.40;;;4.20;;
52318;SDS011;38258;51.148;14.068;2024-01-15T13:24:10;11.23;;;4.22;;
52318;SDS011;38258;51.148;14.068;2024-01-15T13:26:38;9.32;;;3.97;;
52318;SDS011;38258;51.148;14.068;2024-01-15T13:29:05;8.73;;;3.90;;
52318;SDS011;38258;51.148;14.068;2024-01-15T13:31:32;7.35;;;3.47;;
52318;SDS011;38258;51.148;14.068;2024-01-15T13:33:59;5.72;;;2.78;;
52318;SDS011;38258;51.148;14.068;2024-01-15T13:36:26;11.38;;;4.68;;
52318;SDS011;38258;51.148;14.068;2024-01-15T13:38:53;10.95;;;3.88;;
52318;SDS011;38258;51.148;14.068;2024-01-15T13:41:20;7.53;;;3.40;;
52318;SDS011;38258;51.148;14.068;2024-01-15T13:43:53;8.65;;;4.07;;
52318;SDS011;38258;51.148;14.068;2024-01-15T13:46:23;6.05;;;3.38;;
52318;SDS011;38258;51.148;14.068;2024-01-15T13:48:51;7.70;;;3.90;;
52318;SDS011;38258;51.148;14.068;2024-01-15T13:51:18;7.90;;;3.70;;
52318;SDS011;38258;51.148;14.068;2024-01-15T13:53:44;9.70;;;4.30;;
52318;SDS011;38258;51.148;14.068;2024-01-15T13:56:11;10.38;;;4.00;;
52318;SDS011;38258;51.148;14.068;2024-01-15T13:58:37;9.23;;;3.95;;
52318;SDS011;38258;51.148;14.068;2024-01-15T14:01:05;6.93;;;3.60;;
52318;SDS011;38258;51.148;14.068;2024-01-15T14:03:33;9.52;;;4.10;;
52318;SDS011;38258;51.148;14.068;2024-01-15T14:06:00;6.93;;;3.47;;
52318;SDS011;38258;51.148;14.068;2024-01-15T14:08:28;6.75;;;3.50;;
52318;SDS011;38258;51.148;14.068;2024-01-15T14:10:55;8.15;;;3.72;;
52318;SDS011;38258;51.148;14.068;2024-01-15T14:13:22;5.13;;;2.80;;
52318;SDS011;38258;51.148;14.068;2024-01-15T14:15:49;8.13;;;3.95;;
52318;SDS011;38258;51.148;14.068;2024-01-15T14:18:17;7.13;;;3.63;;
52318;SDS011;38258;51.148;14.068;2024-01-15T14:20:44;9.43;;;3.47;;
52318;SDS011;38258;51.148;14.068;2024-01-15T14:23:10;7.85;;;3.50;;
52318;SDS011;38258;51.148;14.068;2024-01-15T14:25:37;9.77;;;4.15;;
52318;SDS011;38258;51.148;14.068;2024-01-15T14:28:04;7.97;;;3.78;;
52318;SDS011;38258;51.148;14.068;2024-01-15T14:30:31;11.00;;;4.82;;
52318;SDS011;38258;51.148;14.068;2024-01-15T14:32:58;10.15;;;4.20;;